Airfield :
LOGIN :

Register | Disclaimer

   EN    FR    IT 

 










Legend :    VFR   Marginal VFR   IFR   Intensive IFR   Very Intensive IFR
Visi :
Ceiling :
>= 8 km
>= 3000ft
5 to 8 km
1000 to 3000 ft
1500m to 5 km
500 to 1000 ft
800 to 1500m
200 to 500 ft
< 800m
< 200 ft
Symbols :   Thunderstorms  Fog  Heavy snow  Heavy precipitations  Wind > 20 kt
SIGMETs :     Misc.  Thunderstorms  Icing  Turbulence  Mountain Waves  Volcanic Ashes







- Airport Elevation : 13 ft
- IATA code : OST


EBOS - Oostend bruges Int.

CURRENT METAR :
  • 240820Z 29007KT 9999 FEW011 15/11 Q1016 NOSIG

EXPIRED METARs :
  • 240750Z 28010KT 9999 FEW009 14/11 Q1016 NOSIG
  • 240720Z 29011KT 8000 FEW008 14/11 Q1016 NOSIG
  • 240650Z 26010KT 5000 BR BKN007 13/10 Q1016 BECMG 8000 FEW007
  • 240620Z 25009KT 6000 FEW008 12/10 Q1016 TEMPO 4000 BR BKN009
  • 240550Z 25009KT 210V270 6000 SCT008 12/10 Q1016 TEMPO 4000 BR BKN009

TAF TAF EBOS
Valid from the 24 at 06:00 until the 25 at 12:00 UTC


240500Z 2406/2512 27010KT CAVOK
BECMG 2408/2410 35008KT
PROB40
TEMPO 2506/2512 4500 -RA SHRA
PROB30
TEMPO 2509/2512 BKN014TCU
No reported NOTAMs for that airfield.



MET'MAP, your aeronautical weather chart ! - Copyright ORBIFLY December 2007 - Disclaimer

ORBIFLY MET'MAP TEAM :

Programming & Development : Alexandra Zaïnal
Concept & Development : Baudouin d'Aumeries
Co-Development & Prog : Marc-Olivier Méhu
Technical & hardware support : Manuel Goepfert

Contact : metmap@orbifly.com




SOURCES & CREDITS :

   NOAA